createdAt,value
2019-01-11T00:02:35.143Z,101913.09
2019-01-11T00:07:37.319Z,101907.64
2019-01-11T00:12:40.219Z,101909.38
2019-01-11T00:17:42.361Z,101905.47
2019-01-11T00:22:44.789Z,101900.80
2019-01-11T00:27:47.634Z,101897.84
2019-01-11T00:32:49.827Z,101897.84
2019-01-11T00:37:52.593Z,101891.47
2019-01-11T00:42:55.012Z,101888.08
2019-01-11T00:47:57.179Z,101881.21
2019-01-11T00:52:59.377Z,101876.51
2019-01-11T00:58:01.816Z,101867.64
2019-01-11T01:03:04.291Z,101865.94
2019-01-11T01:08:06.464Z,101862.58
2019-01-11T01:13:09.000Z,101860.02
2019-01-11T01:18:11.499Z,101856.17
2019-01-11T01:23:13.677Z,101860.41
2019-01-11T01:28:16.035Z,101859.95
2019-01-11T01:33:18.647Z,101859.06
2019-01-11T01:38:20.827Z,101853.97
2019-01-11T01:43:23.303Z,101847.59
2019-01-11T01:48:25.607Z,101848.88
2019-01-11T01:53:28.282Z,101847.17
2019-01-11T01:58:30.436Z,101841.62
2019-01-11T02:03:33.052Z,101839.05
2019-01-11T02:08:35.697Z,101836.49
2019-01-11T02:13:38.008Z,101830.58
2019-01-11T02:18:40.670Z,101830.12
2019-01-11T02:23:43.308Z,101820.72
2019-01-11T02:28:45.506Z,101815.95
2019-01-11T02:33:48.116Z,101811.28
2019-01-11T02:38:50.528Z,101805.73
2019-01-11T02:43:52.737Z,101793.42
2019-01-11T02:48:55.397Z,101791.67
2019-01-11T02:53:57.543Z,101778.90
2019-01-11T02:58:59.708Z,101767.44
2019-01-11T03:04:02.061Z,101757.16
2019-01-11T03:09:06.278Z,101745.66
2019-01-11T03:14:08.777Z,101746.95
2019-01-11T03:19:10.956Z,101726.48
2019-01-11T03:24:13.141Z,101719.65
2019-01-11T03:29:15.315Z,101708.51
2019-01-11T03:34:17.501Z,101708.93
2019-01-11T03:39:20.072Z,101697.09
2019-01-11T03:44:22.289Z,101689.76
2019-01-11T03:49:24.544Z,101675.70
2019-01-11T03:54:26.751Z,101685.06
2019-01-11T03:59:29.652Z,101683.30
2019-01-11T04:04:31.834Z,101678.61
2019-01-11T04:09:34.011Z,101663.19
2019-01-11T04:14:36.723Z,101650.42
2019-01-11T04:19:38.930Z,101649.98
2019-01-11T04:25:03.232Z,101641.88
2019-01-11T04:30:13.988Z,101629.93
2019-01-11T04:35:18.696Z,101619.72
2019-01-11T04:40:21.422Z,101603.97
2019-01-11T04:45:24.405Z,101605.58
2019-01-11T04:50:26.729Z,101599.18
2019-01-11T04:55:28.905Z,101595.39
2019-01-11T05:00:31.317Z,101586.03
2019-01-11T05:05:33.938Z,101581.34
2019-01-11T05:10:36.597Z,101575.79
2019-01-11T05:15:39.365Z,101569.77
2019-01-11T05:20:41.781Z,101561.70
2019-01-11T05:25:44.222Z,101549.33
2019-01-11T05:30:46.635Z,101547.19
2019-01-11T05:35:48.840Z,101545.05
2019-01-11T05:40:51.077Z,101537.78
2019-01-11T05:45:53.441Z,101531.71
2019-01-11T05:50:56.147Z,101528.33
2019-01-11T05:56:01.645Z,101523.16
2019-01-11T06:01:04.337Z,101506.56
2019-01-11T06:06:06.966Z,101499.30
2019-01-11T06:11:09.420Z,101495.02
2019-01-11T06:16:12.395Z,101488.62
2019-01-11T06:21:14.851Z,101478.76
2019-01-11T06:26:17.141Z,101466.78
2019-01-11T06:31:19.634Z,101465.94
2019-01-11T06:36:22.175Z,101460.80
2019-01-11T06:41:26.718Z,101454.35
2019-01-11T06:46:29.153Z,101442.39
2019-01-11T06:51:32.057Z,101449.22
2019-01-11T06:56:34.963Z,101433.90
2019-01-11T07:01:37.739Z,101433.41
2019-01-11T07:06:40.390Z,101434.27
2019-01-11T07:11:44.043Z,101427.80
2019-01-11T07:16:46.338Z,101443.19
2019-01-11T07:21:48.491Z,101444.88
2019-01-11T07:26:50.634Z,101448.73
2019-01-11T07:31:53.080Z,101449.14
2019-01-11T07:36:56.083Z,101431.59
2019-01-11T07:41:58.690Z,101432.85
2019-01-11T07:47:01.260Z,101435.84
2019-01-11T07:52:04.271Z,101442.63
2019-01-11T07:57:06.733Z,101433.66
2019-01-11T08:02:09.373Z,101426.31
2019-01-11T08:07:11.709Z,101427.54
2019-01-11T08:12:13.909Z,101423.70
2019-01-11T08:17:16.607Z,101412.66
2019-01-11T08:22:33.692Z,101396.43
2019-01-11T08:27:36.294Z,101395.97
2019-01-11T08:32:39.344Z,101381.41
2019-01-11T08:37:42.044Z,101375.78
2019-01-11T08:42:44.374Z,101372.36
2019-01-11T08:47:46.960Z,101370.58
2019-01-11T08:52:49.299Z,101366.66
2019-01-11T08:57:51.567Z,101355.56
2019-01-11T09:02:53.758Z,101353.89
2019-01-11T09:07:56.155Z,101340.22
2019-01-11T09:12:59.107Z,101338.09
2019-01-11T09:18:11.872Z,101339.36
2019-01-11T09:23:14.664Z,101343.16
2019-01-11T09:28:17.104Z,101337.53
2019-01-11T09:33:20.577Z,101331.11
2019-01-11T09:38:23.246Z,101315.64
2019-01-11T09:43:25.935Z,101311.78
2019-01-11T09:48:28.385Z,101312.08
2019-01-11T09:53:30.960Z,101306.87
2019-01-11T09:58:33.644Z,101297.42
2019-01-11T10:03:36.581Z,101302.13
2019-01-11T10:08:38.762Z,101292.21
2019-01-11T10:13:40.902Z,101282.31
2019-01-11T10:18:43.140Z,101271.55
2019-01-11T10:23:45.382Z,101272.83
2019-01-11T10:28:48.047Z,101260.42
2019-01-11T10:33:50.757Z,101245.89
2019-01-11T10:38:53.064Z,101225.72
2019-01-11T10:43:55.478Z,101224.81
2019-01-11T10:48:57.895Z,101220.02
2019-01-11T10:54:01.855Z,101214.38
2019-01-11T10:59:04.858Z,101200.06
2019-01-11T11:04:07.659Z,101203.41
2019-01-11T11:09:10.130Z,101193.58
2019-01-11T11:14:12.546Z,101188.75
2019-01-11T11:19:15.522Z,101179.16
2019-01-11T11:24:17.939Z,101176.92
2019-01-11T11:29:20.569Z,101158.90
2019-01-11T11:34:27.230Z,101148.55
2019-01-11T11:39:29.860Z,101144.61
2019-01-11T11:44:32.483Z,101129.09
2019-01-11T11:49:34.701Z,101122.89
2019-01-11T11:54:36.870Z,101099.64
2019-01-11T11:59:39.422Z,101093.95
2019-01-11T12:04:42.325Z,101082.68
2019-01-11T12:09:44.814Z,101077.42
2019-01-11T12:14:46.946Z,101063.48
2019-01-11T12:19:49.640Z,101049.67
2019-01-11T12:24:52.144Z,101043.19
2019-01-11T12:29:54.781Z,101031.03
2019-01-11T12:34:57.069Z,101030.87
2019-01-11T12:40:00.321Z,101024.63
2019-01-11T12:45:04.645Z,101020.13
2019-01-11T12:50:12.316Z,101005.32
2019-01-11T12:55:15.255Z,101003.02
2019-01-11T13:00:18.082Z,100996.52
2019-01-11T13:05:20.921Z,100989.89
2019-01-11T13:10:23.138Z,100990.19
2019-01-11T13:15:26.275Z,100971.27
2019-01-11T13:20:28.855Z,100969.44
2019-01-11T13:25:32.346Z,100963.78
2019-01-11T13:30:35.047Z,100956.63
2019-01-11T13:35:37.291Z,100953.47
2019-01-11T13:40:39.743Z,100949.86
2019-01-11T13:45:42.635Z,100948.39
2019-01-11T13:50:45.322Z,100941.37
2019-01-11T13:55:47.909Z,100933.13
2019-01-11T14:00:50.420Z,100927.83
2019-01-11T14:05:52.607Z,100926.36
2019-01-11T14:10:55.356Z,100937.38
2019-01-11T14:15:57.609Z,100933.41
2019-01-11T14:21:00.499Z,100932.41
2019-01-11T14:26:02.759Z,100924.60
2019-01-11T14:31:05.279Z,100925.29
2019-01-11T14:36:07.773Z,100920.80
2019-01-11T14:41:11.085Z,100916.33
2019-01-11T14:46:13.651Z,100916.61
2019-01-11T14:51:15.905Z,100923.73
2019-01-11T14:56:18.140Z,100914.95
2019-01-11T15:01:20.365Z,100903.69
2019-01-11T15:06:23.321Z,100902.20
2019-01-11T15:11:25.733Z,100898.56
2019-01-11T15:16:28.180Z,100885.52
2019-01-11T15:21:30.373Z,100890.50
2019-01-11T15:26:33.295Z,100898.06
2019-01-11T15:31:36.056Z,100878.61
2019-01-11T15:36:38.148Z,100874.17
2019-01-11T15:41:40.821Z,100877.05
2019-01-11T15:46:43.621Z,100873.06
2019-01-11T15:51:45.821Z,100857.42
2019-01-11T15:56:48.509Z,100853.38
2019-01-11T16:01:53.890Z,100851.91
2019-01-11T16:06:56.064Z,100844.90
2019-01-11T16:12:07.083Z,100852.00
2019-01-11T16:17:12.667Z,100841.95
2019-01-11T16:22:15.532Z,100839.59
2019-01-11T16:27:18.639Z,100831.67
2019-01-11T16:32:20.915Z,100829.36
2019-01-11T16:37:23.526Z,100832.15
2019-01-11T16:42:25.812Z,100834.55
2019-01-11T16:47:28.297Z,100826.67
2019-01-11T16:52:30.600Z,100838.80
2019-01-11T16:57:33.313Z,100827.05
2019-01-11T17:02:36.732Z,100838.48
2019-01-11T17:07:39.571Z,100832.77
2019-01-11T17:12:42.192Z,100829.59
2019-01-11T17:17:44.417Z,100843.06
2019-01-11T17:22:52.760Z,100843.46
2019-01-11T17:27:50.854Z,100846.38
2019-01-11T17:32:54.457Z,100844.56
2019-01-11T17:37:57.343Z,100843.61
2019-01-11T17:42:59.529Z,100849.98
2019-01-11T17:48:03.033Z,100845.16
2019-01-11T17:53:05.509Z,100846.36
2019-01-11T17:58:07.687Z,100848.89
2019-01-11T18:03:10.096Z,100853.08
2019-01-11T18:08:12.434Z,100853.41
2019-01-11T18:13:15.800Z,100858.97
2019-01-11T18:18:18.106Z,100862.31
2019-01-11T18:23:20.597Z,100862.65
2019-01-11T18:28:22.987Z,100866.52
2019-01-11T18:33:25.218Z,100875.02
2019-01-11T18:38:27.531Z,100867.67
2019-01-11T18:43:29.914Z,100868.13
2019-01-11T18:48:32.059Z,100862.91
2019-01-11T18:53:34.194Z,100875.81
2019-01-11T18:58:36.891Z,100877.95
2019-01-11T19:03:39.339Z,100871.94
2019-01-11T19:08:42.003Z,100877.02
2019-01-11T19:13:44.195Z,100880.42
2019-01-11T19:18:47.826Z,100882.95
2019-01-11T19:23:50.473Z,100880.28
2019-01-11T19:28:52.864Z,100881.13
2019-01-11T19:33:55.515Z,100887.53
2019-01-11T19:38:58.291Z,100898.25
2019-01-11T19:44:02.199Z,100895.58
2019-01-11T19:49:05.216Z,100888.23
2019-01-11T19:54:08.209Z,100890.81
2019-01-11T19:59:10.478Z,100892.16
2019-01-11T20:04:12.885Z,100887.47
2019-01-11T20:09:15.080Z,100888.77
2019-01-11T20:14:18.025Z,100887.47
2019-01-11T20:19:20.605Z,100884.16
2019-01-11T20:24:23.512Z,100891.91
2019-01-11T20:29:25.870Z,100896.31
2019-01-11T20:34:28.161Z,100891.55
2019-01-11T20:39:30.458Z,100891.59
2019-01-11T20:44:32.663Z,100889.46
2019-01-11T20:49:35.340Z,100886.90
2019-01-11T20:54:37.627Z,100889.91
2019-01-11T20:59:40.041Z,100900.23
2019-01-11T21:04:42.552Z,100898.61
2019-01-11T21:09:45.199Z,100906.72
2019-01-11T21:14:47.713Z,100911.87
2019-01-11T21:19:50.219Z,100915.00
2019-01-11T21:24:52.683Z,100914.94
2019-01-11T21:29:55.554Z,100915.39
2019-01-11T21:34:57.797Z,100918.87
2019-01-11T21:40:00.518Z,100912.02
2019-01-11T21:45:04.342Z,100924.09
2019-01-11T21:50:14.611Z,100925.72
2019-01-11T21:55:17.307Z,100932.97
2019-01-11T22:00:32.804Z,100935.55
2019-01-11T22:05:35.109Z,100938.19
2019-01-11T22:10:37.384Z,100941.58
2019-01-11T22:15:39.603Z,100955.78
2019-01-11T22:20:42.343Z,100952.39
2019-01-11T22:25:45.060Z,100947.22
2019-01-11T22:30:47.555Z,100948.87
2019-01-11T22:35:49.746Z,100948.12
2019-01-11T22:40:51.966Z,100938.29
2019-01-11T22:45:54.205Z,100944.74
2019-01-11T22:50:56.396Z,100944.34
2019-01-11T22:55:58.999Z,100956.05
2019-01-11T23:01:50.133Z,100964.55
2019-01-11T23:07:17.431Z,100962.95
2019-01-11T23:12:57.545Z,100959.53
2019-01-11T23:18:07.899Z,100962.25
2019-01-11T23:23:10.120Z,100966.62
2019-01-11T23:28:12.852Z,100971.47
2019-01-11T23:33:15.196Z,100979.31
2019-01-11T23:38:17.488Z,100987.24
2019-01-11T23:43:19.910Z,100983.84
2019-01-11T23:48:23.419Z,100978.73
2019-01-11T23:53:25.629Z,100992.41
2019-01-11T23:58:28.565Z,100995.96
